Time;durP1;ratioP1;P1;durP2;ratioP2;P2;SDS_P1;SDS_P2;PMS_P1;PMS_P2;Temp;Humidity;BMP_temperature;BMP_pressure;BME280_temperature;BME280_humidity;BME280_pressure;Samples;Min_cycle;Max_cycle;Signal;HPM_P1;HPM_P2
2023/12/20 00:02:26;;;;;;;;;;;5.10;92.90;;;;;;5083805;28;19924;-72
2023/12/20 00:04:59;;;;;;;;;;;5.10;92.90;;;;;;5088851;28;19924;-74
2023/12/20 00:07:32;;;;;;;;;;;5.00;92.90;;;;;;5088623;28;20022;-72
2023/12/20 00:10:05;;;;;;;;;;;5.10;92.90;;;;;;5083039;28;19928;-71
2023/12/20 00:12:39;;;;;;;;;;;5.10;92.90;;;;;;5081377;28;20343;-74
2023/12/20 00:15:13;;;;;;;;;;;5.10;92.90;;;;;;5086594;28;20043;-72
2023/12/20 00:17:46;;;;;;;;;;;5.10;92.90;;;;;;5105166;28;19928;-72
2023/12/20 00:20:13;;;;;;;;;;;5.10;92.90;;;;;;5082075;28;20288;-73
2023/12/20 00:22:46;;;;;;;;;;;5.10;92.90;;;;;;5089362;28;20043;-72
2023/12/20 00:25:19;;;;;;;;;;;5.10;92.90;;;;;;5087618;28;20054;-74
2023/12/20 00:27:53;;;;;;;;;;;5.10;92.90;;;;;;5087506;28;19938;-75
2023/12/20 00:30:27;;;;;;;;;;;5.10;92.80;;;;;;5087272;28;19962;-72
2023/12/20 00:33:00;;;;;;;;;;;5.10;92.80;;;;;;5089617;28;19924;-73
2023/12/20 00:35:33;;;;;;;;;;;5.20;92.90;;;;;;5087068;28;19932;-72
2023/12/20 00:38:06;;;;;;;;;;;5.20;92.90;;;;;;5088158;28;19954;-73
2023/12/20 00:40:40;;;;;;;;;;;5.10;92.90;;;;;;5085947;28;20015;-73
2023/12/20 00:43:14;;;;;;;;;;;5.10;92.90;;;;;;5085036;28;19934;-73
2023/12/20 00:45:48;;;;;;;;;;;5.20;92.90;;;;;;5087485;28;19938;-75
2023/12/20 00:48:21;;;;;;;;;;;5.10;92.90;;;;;;5084171;28;19924;-72
2023/12/20 00:50:54;;;;;;;;;;;5.20;92.90;;;;;;5081988;28;19935;-71
2023/12/20 00:53:27;;;;;;;;;;;5.10;92.90;;;;;;5086195;28;19932;-73
2023/12/20 00:56:00;;;;;;;;;;;5.20;92.90;;;;;;5088687;28;19977;-73
2023/12/20 00:58:34;;;;;;;;;;;5.20;92.90;;;;;;5091120;28;19924;-74
2023/12/20 01:01:08;;;;;;;;;;;5.20;92.90;;;;;;5089876;28;20005;-74
2023/12/20 01:03:41;;;;;;;;;;;5.10;92.90;;;;;;5091343;28;19963;-73
2023/12/20 01:06:14;;;;;;;;;;;5.20;92.90;;;;;;5086462;28;20295;-73
2023/12/20 01:08:47;;;;;;;;;;;5.20;92.90;;;;;;5092843;28;20287;-73
2023/12/20 01:11:20;;;;;;;;;;;5.20;92.80;;;;;;5089338;27;19928;-61
2023/12/20 01:13:54;;;;;;;;;;;5.20;92.80;;;;;;5088524;28;19932;-60
2023/12/20 01:16:28;;;;;;;;;;;5.20;92.80;;;;;;5088841;28;19924;-60
2023/12/20 01:19:07;;;;;;;;;;;5.20;92.80;;;;;;5090097;28;19947;-60
2023/12/20 01:21:41;;;;;;;;;;;5.20;92.90;;;;;;5086737;28;19939;-59
2023/12/20 01:24:14;;;;;;;;;;;5.20;92.90;;;;;;5084300;28;19974;-61
2023/12/20 01:26:47;;;;;;;;;;;5.20;92.90;;;;;;5085755;28;20382;-60
2023/12/20 01:29:21;;;;;;;;;;;5.20;92.90;;;;;;5086191;28;19997;-60
2023/12/20 01:31:55;;;;;;;;;;;5.20;92.80;;;;;;5084316;28;19928;-62
2023/12/20 01:34:22;;;;;;;;;;;5.20;92.80;;;;;;5082696;28;19939;-62
2023/12/20 01:36:55;;;;;;;;;;;5.20;92.80;;;;;;5087949;28;19932;-61
2023/12/20 01:39:28;;;;;;;;;;;5.20;92.90;;;;;;5087120;28;20066;-58
2023/12/20 01:42:01;;;;;;;;;;;5.20;92.90;;;;;;5085689;28;19924;-60
2023/12/20 01:44:29;;;;;;;;;;;5.20;92.90;;;;;;5081603;28;19923;-59
2023/12/20 01:47:02;;;;;;;;;;;5.20;93.00;;;;;;5089184;28;20386;-59
2023/12/20 01:49:35;;;;;;;;;;;5.20;92.90;;;;;;5088977;28;19982;-60
2023/12/20 01:52:08;;;;;;;;;;;5.20;92.90;;;;;;5090071;28;19928;-60
2023/12/20 01:54:43;;;;;;;;;;;5.20;92.90;;;;;;5086085;28;19963;-59
2023/12/20 01:57:16;;;;;;;;;;;5.20;92.90;;;;;;5084152;28;19928;-60
2023/12/20 01:59:50;;;;;;;;;;;5.20;92.90;;;;;;5088854;28;19936;-59
2023/12/20 02:02:24;;;;;;;;;;;5.10;92.90;;;;;;5086512;28;19932;-60
2023/12/20 02:04:57;;;;;;;;;;;5.20;92.90;;;;;;5089491;28;19928;-58
2023/12/20 02:07:30;;;;;;;;;;;5.20;92.90;;;;;;5087759;28;19928;-59
2023/12/20 02:10:03;;;;;;;;;;;5.20;92.90;;;;;;5086921;28;19927;-59
2023/12/20 02:12:37;;;;;;;;;;;5.20;92.90;;;;;;5087075;28;19924;-60
2023/12/20 02:15:11;;;;;;;;;;;5.20;92.90;;;;;;5082319;28;20015;-61
2023/12/20 02:17:39;;;;;;;;;;;5.20;92.90;;;;;;5081287;28;19928;-59
2023/12/20 02:20:12;;;;;;;;;;;5.10;92.90;;;;;;5087538;28;19924;-61
2023/12/20 02:22:46;;;;;;;;;;;5.20;92.90;;;;;;5089018;28;20390;-62
2023/12/20 02:25:20;;;;;;;;;;;5.20;92.80;;;;;;5080063;28;20023;-60
2023/12/20 02:27:53;;;;;;;;;;;5.20;92.90;;;;;;5087314;28;19928;-61
2023/12/20 02:30:26;;;;;;;;;;;5.20;92.90;;;;;;5087461;28;19935;-61
2023/12/20 02:33:00;;;;;;;;;;;5.20;92.90;;;;;;5077683;28;19935;-61
2023/12/20 02:35:33;;;;;;;;;;;5.20;92.90;;;;;;5081554;28;20394;-60
2023/12/20 02:38:07;;;;;;;;;;;5.20;92.90;;;;;;5082303;28;20294;-61
2023/12/20 02:40:41;;;;;;;;;;;5.20;92.90;;;;;;5084738;28;19932;-61
2023/12/20 02:43:14;;;;;;;;;;;5.10;92.90;;;;;;5080422;28;19935;-61
2023/12/20 02:45:47;;;;;;;;;;;5.20;92.90;;;;;;5086560;28;19935;-61
2023/12/20 02:48:13;;;;;;;;;;;5.20;92.90;;;;;;5088570;28;20450;-61
2023/12/20 02:50:47;;;;;;;;;;;5.20;92.90;;;;;;5088308;28;19935;-62
2023/12/20 02:53:22;;;;;;;;;;;5.20;92.90;;;;;;5086748;28;19928;-62
2023/12/20 02:55:56;;;;;;;;;;;5.20;92.90;;;;;;5087205;28;20719;-61
2023/12/20 02:58:29;;;;;;;;;;;5.20;92.90;;;;;;5084996;28;19948;-61
2023/12/20 03:01:02;;;;;;;;;;;5.20;92.90;;;;;;5082194;28;19974;-61
2023/12/20 03:03:35;;;;;;;;;;;5.20;92.90;;;;;;5089156;28;19924;-62
2023/12/20 03:06:08;;;;;;;;;;;5.20;92.90;;;;;;5090240;28;19928;-60
2023/12/20 03:08:42;;;;;;;;;;;5.20;92.90;;;;;;5084775;28;19924;-61
2023/12/20 03:11:15;;;;;;;;;;;5.20;93.00;;;;;;5087362;28;19939;-62
2023/12/20 03:13:48;;;;;;;;;;;5.20;93.00;;;;;;5086885;28;19932;-62
2023/12/20 03:16:21;;;;;;;;;;;5.20;93.00;;;;;;5085609;28;20275;-61
2023/12/20 03:18:54;;;;;;;;;;;5.20;92.90;;;;;;5088799;28;20416;-61
2023/12/20 03:21:27;;;;;;;;;;;5.20;92.90;;;;;;5086034;28;20014;-62
2023/12/20 03:24:01;;;;;;;;;;;5.20;92.90;;;;;;5088475;28;19928;-62
2023/12/20 03:26:35;;;;;;;;;;;5.20;92.90;;;;;;5083712;28;20298;-62
2023/12/20 03:29:08;;;;;;;;;;;5.20;92.90;;;;;;5088360;28;19924;-61
2023/12/20 03:31:41;;;;;;;;;;;5.20;92.90;;;;;;5086203;28;20027;-63
2023/12/20 03:34:14;;;;;;;;;;;5.20;92.90;;;;;;5087439;28;19924;-62
2023/12/20 03:36:47;;;;;;;;;;;5.20;92.90;;;;;;5084784;28;19924;-63
2023/12/20 03:39:22;;;;;;;;;;;5.20;92.90;;;;;;5087127;28;19963;-61
2023/12/20 03:41:56;;;;;;;;;;;5.20;92.90;;;;;;5087708;28;19946;-62
2023/12/20 03:44:29;;;;;;;;;;;5.20;92.90;;;;;;5084538;28;19951;-62
2023/12/20 03:47:02;;;;;;;;;;;5.20;92.80;;;;;;5088663;28;19960;-63
2023/12/20 03:49:36;;;;;;;;;;;5.20;92.90;;;;;;5087542;28;19924;-63
2023/12/20 03:52:10;;;;;;;;;;;5.20;92.90;;;;;;5086962;28;19924;-63
2023/12/20 03:54:44;;;;;;;;;;;5.20;92.90;;;;;;5085975;28;19931;-61
2023/12/20 03:57:18;;;;;;;;;;;5.20;92.90;;;;;;5086052;28;20408;-62
2023/12/20 03:59:51;;;;;;;;;;;5.20;92.90;;;;;;5086502;28;19934;-62
2023/12/20 04:02:24;;;;;;;;;;;5.20;93.00;;;;;;5086639;28;19928;-63
2023/12/20 04:04:57;;;;;;;;;;;5.20;92.90;;;;;;5086238;28;19939;-63
2023/12/20 04:07:30;;;;;;;;;;;5.20;92.90;;;;;;5084688;28;19939;-63
2023/12/20 04:10:05;;;;;;;;;;;5.20;92.90;;;;;;5086180;28;20018;-63
2023/12/20 04:12:38;;;;;;;;;;;5.20;92.90;;;;;;5088464;28;19977;-62
2023/12/20 04:15:11;;;;;;;;;;;5.20;92.90;;;;;;5082359;28;19931;-63
2023/12/20 04:17:45;;;;;;;;;;;5.20;92.90;;;;;;5085023;28;20011;-63
2023/12/20 04:20:18;;;;;;;;;;;5.20;92.90;;;;;;5086165;28;19928;-63
2023/12/20 04:22:51;;;;;;;;;;;5.20;92.90;;;;;;5087343;28;19928;-63
2023/12/20 04:25:25;;;;;;;;;;;5.20;93.00;;;;;;5082536;28;20399;-63
2023/12/20 04:27:59;;;;;;;;;;;5.20;93.00;;;;;;5087540;27;19963;-62
2023/12/20 04:30:32;;;;;;;;;;;5.20;93.00;;;;;;5087631;28;19928;-63
2023/12/20 04:33:05;;;;;;;;;;;5.20;93.00;;;;;;5080710;28;19924;-62
2023/12/20 04:35:40;;;;;;;;;;;5.20;93.00;;;;;;5086754;28;20398;-62
2023/12/20 04:38:13;;;;;;;;;;;5.20;93.00;;;;;;5085815;28;19924;-62
2023/12/20 04:40:48;;;;;;;;;;;5.20;93.00;;;;;;5085248;28;19928;-57
2023/12/20 04:43:21;;;;;;;;;;;5.20;93.00;;;;;;5088236;28;19932;-58
2023/12/20 04:45:54;;;;;;;;;;;5.20;93.00;;;;;;5087170;28;19935;-58
2023/12/20 04:48:27;;;;;;;;;;;5.20;92.90;;;;;;5084331;28;19928;-57
2023/12/20 04:51:00;;;;;;;;;;;5.20;93.00;;;;;;5087804;28;19933;-58
2023/12/20 04:53:39;;;;;;;;;;;5.20;93.00;;;;;;5090786;28;20033;-57
2023/12/20 04:56:14;;;;;;;;;;;5.20;92.90;;;;;;5087682;28;19977;-58
2023/12/20 04:58:48;;;;;;;;;;;5.30;93.00;;;;;;5083720;28;19928;-58
2023/12/20 05:01:23;;;;;;;;;;;5.30;93.00;;;;;;5090056;28;19932;-59
2023/12/20 05:03:56;;;;;;;;;;;5.20;92.90;;;;;;5090547;28;19979;-59
2023/12/20 05:06:29;;;;;;;;;;;5.30;93.00;;;;;;5087874;28;19928;-58
2023/12/20 05:09:02;;;;;;;;;;;5.30;93.00;;;;;;5091759;28;20601;-59
2023/12/20 05:11:39;;;;;;;;;;;5.30;93.00;;;;;;5092746;28;19924;-60
2023/12/20 05:14:12;;;;;;;;;;;5.30;92.90;;;;;;5089320;28;19932;-60
2023/12/20 05:16:45;;;;;;;;;;;5.30;92.90;;;;;;5090347;28;19997;-59
2023/12/20 05:19:18;;;;;;;;;;;5.30;93.00;;;;;;5090736;28;19978;-58
2023/12/20 05:21:51;;;;;;;;;;;5.20;92.90;;;;;;5087471;28;19924;-58
2023/12/20 05:24:30;;;;;;;;;;;5.20;93.00;;;;;;5088744;28;20051;-57
2023/12/20 05:27:05;;;;;;;;;;;5.30;93.00;;;;;;5090239;28;19928;-59
2023/12/20 05:29:39;;;;;;;;;;;5.30;93.00;;;;;;5085391;28;20317;-57
2023/12/20 05:32:12;;;;;;;;;;;5.30;93.00;;;;;;5076181;27;19932;-60
2023/12/20 05:34:45;;;;;;;;;;;5.30;93.00;;;;;;5085932;28;20015;-59
2023/12/20 05:37:18;;;;;;;;;;;5.30;93.00;;;;;;5076069;28;19928;-58
2023/12/20 05:39:51;;;;;;;;;;;5.30;93.00;;;;;;5087698;28;19932;-58
2023/12/20 05:42:25;;;;;;;;;;;5.30;93.10;;;;;;5085598;28;19924;-59
2023/12/20 05:44:59;;;;;;;;;;;5.30;93.10;;;;;;5086973;28;20005;-59
2023/12/20 05:47:32;;;;;;;;;;;5.30;93.00;;;;;;5083036;28;20027;-59
2023/12/20 05:50:05;;;;;;;;;;;5.30;93.10;;;;;;5084602;28;19932;-58
2023/12/20 05:52:39;;;;;;;;;;;5.30;93.00;;;;;;5085795;28;19930;-60
2023/12/20 05:55:12;;;;;;;;;;;5.30;93.10;;;;;;5084332;28;20294;-61
2023/12/20 05:57:48;;;;;;;;;;;5.30;93.00;;;;;;5085065;28;19931;-61
2023/12/20 06:00:21;;;;;;;;;;;5.30;93.10;;;;;;5084331;28;19928;-62
2023/12/20 06:02:54;;;;;;;;;;;5.40;93.00;;;;;;5088635;28;19930;-61
2023/12/20 06:05:28;;;;;;;;;;;5.30;93.00;;;;;;5085825;28;19928;-61
2023/12/20 06:08:07;;;;;;;;;;;5.30;93.00;;;;;;5087382;28;19960;-62
2023/12/20 06:10:41;;;;;;;;;;;5.30;93.00;;;;;;5085560;28;19932;-61
2023/12/20 06:13:15;;;;;;;;;;;5.40;93.00;;;;;;5087674;28;20030;-62
2023/12/20 06:15:49;;;;;;;;;;;5.40;92.90;;;;;;5087020;28;19928;-60
2023/12/20 06:18:22;;;;;;;;;;;5.30;92.90;;;;;;5087987;28;19928;-62
2023/12/20 06:20:55;;;;;;;;;;;5.30;92.80;;;;;;5090373;28;20869;-61
2023/12/20 06:23:29;;;;;;;;;;;5.30;92.60;;;;;;5086018;28;19924;-61
2023/12/20 06:26:02;;;;;;;;;;;5.30;92.60;;;;;;5087976;28;19928;-60
2023/12/20 06:28:36;;;;;;;;;;;5.30;92.60;;;;;;5085661;28;19932;-61
2023/12/20 06:31:10;;;;;;;;;;;5.30;92.50;;;;;;5084772;28;20452;-60
2023/12/20 06:33:37;;;;;;;;;;;5.30;92.40;;;;;;5086143;28;20030;-60
2023/12/20 06:36:12;;;;;;;;;;;5.30;92.30;;;;;;5085088;28;19932;-61
2023/12/20 06:38:46;;;;;;;;;;;5.30;92.30;;;;;;5083834;28;19924;-61
2023/12/20 06:41:19;;;;;;;;;;;5.40;92.30;;;;;;5085189;28;19967;-60
2023/12/20 06:43:53;;;;;;;;;;;5.30;92.30;;;;;;5083527;28;19947;-60
2023/12/20 06:46:27;;;;;;;;;;;5.30;92.20;;;;;;5084825;28;20417;-62
2023/12/20 06:49:00;;;;;;;;;;;5.30;92.20;;;;;;5083290;28;19964;-61
2023/12/20 06:51:33;;;;;;;;;;;5.30;92.20;;;;;;5083956;28;19924;-62
2023/12/20 06:54:06;;;;;;;;;;;5.30;92.10;;;;;;5084475;28;19939;-61
2023/12/20 06:56:41;;;;;;;;;;;5.30;92.00;;;;;;5085261;28;19933;-60
2023/12/20 06:59:15;;;;;;;;;;;5.30;91.90;;;;;;5078674;28;19931;-62
2023/12/20 07:01:50;;;;;;;;;;;5.30;91.80;;;;;;5084599;28;19938;-73
2023/12/20 07:04:23;;;;;;;;;;;5.30;91.70;;;;;;5083051;28;20359;-71
2023/12/20 07:06:57;;;;;;;;;;;5.30;91.60;;;;;;5081103;28;19973;-73
2023/12/20 07:09:30;;;;;;;;;;;5.20;91.60;;;;;;5084641;28;19928;-71
2023/12/20 07:12:03;;;;;;;;;;;5.20;91.50;;;;;;5085864;28;20377;-73
2023/12/20 07:14:38;;;;;;;;;;;5.20;91.40;;;;;;5084663;28;19928;-72
2023/12/20 07:17:13;;;;;;;;;;;5.20;91.30;;;;;;5081942;28;20019;-72
2023/12/20 07:19:46;;;;;;;;;;;5.20;91.30;;;;;;5084767;28;19961;-72
2023/12/20 07:22:19;;;;;;;;;;;5.20;91.40;;;;;;5081836;28;19929;-71
2023/12/20 07:24:54;;;;;;;;;;;5.10;91.40;;;;;;5085063;27;19981;-72
2023/12/20 07:27:27;;;;;;;;;;;5.10;91.40;;;;;;5085724;28;19924;-72
2023/12/20 07:30:01;;;;;;;;;;;5.00;91.30;;;;;;5085325;28;19928;-70
2023/12/20 07:32:35;;;;;;;;;;;5.00;91.30;;;;;;5085309;28;19924;-71
2023/12/20 07:35:08;;;;;;;;;;;5.00;91.30;;;;;;5085445;28;19924;-72
2023/12/20 07:37:42;;;;;;;;;;;5.00;91.30;;;;;;5084227;28;19946;-70
2023/12/20 07:40:16;;;;;;;;;;;5.00;91.30;;;;;;5084784;28;19925;-71
2023/12/20 07:42:50;;;;;;;;;;;5.00;91.50;;;;;;5084615;28;19932;-71
2023/12/20 07:45:24;;;;;;;;;;;5.00;91.50;;;;;;5085466;28;19928;-72
2023/12/20 07:47:58;;;;;;;;;;;5.10;91.40;;;;;;5085934;28;19971;-72
2023/12/20 07:50:31;;;;;;;;;;;5.00;91.50;;;;;;5081194;28;19966;-73
2023/12/20 07:53:04;;;;;;;;;;;5.10;91.50;;;;;;5083037;28;20841;-71
2023/12/20 07:55:37;;;;;;;;;;;5.10;91.50;;;;;;5084015;28;20007;-70
2023/12/20 07:58:10;;;;;;;;;;;5.10;91.50;;;;;;5082806;28;19939;-72
2023/12/20 08:00:44;;;;;;;;;;;5.00;91.50;;;;;;5081499;28;19975;-72
2023/12/20 08:03:18;;;;;;;;;;;5.10;91.50;;;;;;5083743;28;20035;-72
2023/12/20 08:05:51;;;;;;;;;;;5.10;91.50;;;;;;5083999;27;19940;-72
2023/12/20 08:08:24;;;;;;;;;;;5.10;91.60;;;;;;5084060;28;19924;-72
2023/12/20 08:10:59;;;;;;;;;;;5.10;91.60;;;;;;5081339;28;19932;-62
2023/12/20 08:13:33;;;;;;;;;;;5.10;91.50;;;;;;5084031;27;19924;-62
2023/12/20 08:16:08;;;;;;;;;;;5.10;91.50;;;;;;5081332;28;19932;-60
2023/12/20 08:18:41;;;;;;;;;;;5.20;91.50;;;;;;5081724;28;19928;-61
2023/12/20 08:21:15;;;;;;;;;;;5.20;91.40;;;;;;5084692;28;20025;-62
2023/12/20 08:23:49;;;;;;;;;;;5.20;91.20;;;;;;5076879;28;20294;-62
2023/12/20 08:26:24;;;;;;;;;;;5.20;91.20;;;;;;5085100;28;20345;-61
2023/12/20 08:28:57;;;;;;;;;;;5.20;91.30;;;;;;5082912;28;19924;-62
2023/12/20 08:31:31;;;;;;;;;;;5.20;91.20;;;;;;5086388;27;19928;-61
2023/12/20 08:34:05;;;;;;;;;;;5.20;91.00;;;;;;5085936;28;19967;-60
2023/12/20 08:36:38;;;;;;;;;;;5.30;91.10;;;;;;5079100;28;19928;-60
2023/12/20 08:39:11;;;;;;;;;;;5.20;91.00;;;;;;5085469;28;20382;-62
2023/12/20 08:41:45;;;;;;;;;;;5.20;91.10;;;;;;5084557;28;19932;-61
2023/12/20 08:44:18;;;;;;;;;;;5.30;91.00;;;;;;5083032;28;20011;-61
2023/12/20 08:46:56;;;;;;;;;;;5.30;91.00;;;;;;5087565;28;19935;-61
2023/12/20 08:49:31;;;;;;;;;;;5.30;90.80;;;;;;5085872;28;19962;-61
2023/12/20 08:52:04;;;;;;;;;;;5.30;90.80;;;;;;5084823;28;19962;-61
2023/12/20 08:54:38;;;;;;;;;;;5.30;90.70;;;;;;5079726;28;20444;-62
2023/12/20 08:57:11;;;;;;;;;;;5.30;90.70;;;;;;5084614;28;20040;-62
2023/12/20 08:59:44;;;;;;;;;;;5.30;90.60;;;;;;5085224;28;19928;-62
2023/12/20 09:02:18;;;;;;;;;;;5.30;90.60;;;;;;5077994;28;19928;-62
2023/12/20 09:04:52;;;;;;;;;;;5.30;90.60;;;;;;5086512;28;19924;-61
2023/12/20 09:07:26;;;;;;;;;;;5.30;90.50;;;;;;5087160;28;19925;-62
2023/12/20 09:09:59;;;;;;;;;;;5.30;90.50;;;;;;5083809;28;19936;-61
2023/12/20 09:12:32;;;;;;;;;;;5.40;90.40;;;;;;5084907;28;19932;-61
2023/12/20 09:15:05;;;;;;;;;;;5.40;90.50;;;;;;5084197;28;20023;-61
2023/12/20 09:17:39;;;;;;;;;;;5.40;90.50;;;;;;5082256;28;19971;-62
2023/12/20 09:20:13;;;;;;;;;;;5.40;90.40;;;;;;5088010;28;19928;-61
2023/12/20 09:22:41;;;;;;;;;;;5.30;90.50;;;;;;5090635;28;19967;-73
2023/12/20 09:25:16;;;;;;;;;;;5.40;90.50;;;;;;5082443;28;20021;-73
2023/12/20 09:27:50;;;;;;;;;;;5.40;90.40;;;;;;5089818;28;19966;-72
2023/12/20 09:30:23;;;;;;;;;;;5.30;90.30;;;;;;5086266;28;19932;-73
2023/12/20 09:32:57;;;;;;;;;;;5.30;90.40;;;;;;5084023;28;19927;-72
2023/12/20 09:35:31;;;;;;;;;;;5.40;90.40;;;;;;5083507;28;20028;-73
2023/12/20 09:38:04;;;;;;;;;;;5.40;90.20;;;;;;5085881;28;19931;-73
2023/12/20 09:40:38;;;;;;;;;;;5.40;90.20;;;;;;5083272;28;19977;-72
2023/12/20 09:43:11;;;;;;;;;;;5.40;90.00;;;;;;5084018;28;20031;-72
2023/12/20 09:45:46;;;;;;;;;;;5.50;90.00;;;;;;5085426;28;19924;-73
2023/12/20 09:48:20;;;;;;;;;;;5.50;89.80;;;;;;5088066;28;20028;-73
2023/12/20 09:50:54;;;;;;;;;;;5.60;89.80;;;;;;5086524;28;20393;-72
2023/12/20 09:53:29;;;;;;;;;;;5.50;89.90;;;;;;5079835;28;20294;-74
2023/12/20 09:56:03;;;;;;;;;;;5.60;89.70;;;;;;5081740;28;19939;-73
2023/12/20 09:58:37;;;;;;;;;;;5.60;89.80;;;;;;5084897;28;19924;-75
2023/12/20 10:01:10;;;;;;;;;;;5.60;89.80;;;;;;5086848;28;19925;-74
2023/12/20 10:03:46;;;;;;;;;;;5.60;89.50;;;;;;5080746;28;20009;-73
2023/12/20 10:06:19;;;;;;;;;;;5.70;89.70;;;;;;5090427;28;19928;-72
2023/12/20 10:08:52;;;;;;;;;;;5.60;89.50;;;;;;5085106;28;19924;-72
2023/12/20 10:11:27;;;;;;;;;;;5.60;89.60;;;;;;5082419;28;19928;-72
2023/12/20 10:14:01;;;;;;;;;;;5.60;89.50;;;;;;5089671;28;19932;-72
2023/12/20 10:16:35;;;;;;;;;;;5.70;89.50;;;;;;5087469;28;19978;-72
2023/12/20 10:19:09;;;;;;;;;;;5.70;89.50;;;;;;5084366;28;19930;-72
2023/12/20 10:21:44;;;;;;;;;;;5.70;89.50;;;;;;5086748;28;20038;-73
2023/12/20 10:24:17;;;;;;;;;;;5.70;89.40;;;;;;5083905;28;19935;-72
2023/12/20 10:27:01;;;;;;;;;;;5.70;89.30;;;;;;5086656;28;19939;-72
2023/12/20 10:29:36;;;;;;;;;;;5.80;89.20;;;;;;5085179;28;19982;-73
2023/12/20 10:32:22;;;;;;;;;;;5.80;89.20;;;;;;5084200;28;19934;-63
2023/12/20 10:34:59;;;;;;;;;;;5.80;89.00;;;;;;5083077;28;19924;-62
2023/12/20 10:37:32;;;;;;;;;;;5.80;89.00;;;;;;5077282;28;20382;-63
2023/12/20 10:40:00;;;;;;;;;;;5.80;89.00;;;;;;5083660;28;19924;-62
2023/12/20 10:42:33;;;;;;;;;;;5.80;89.00;;;;;;5084330;28;19973;-62
2023/12/20 10:45:07;;;;;;;;;;;5.90;88.90;;;;;;5086924;28;20019;-62
2023/12/20 10:47:41;;;;;;;;;;;5.80;88.70;;;;;;5086544;28;19931;-63
2023/12/20 10:50:15;;;;;;;;;;;5.80;88.80;;;;;;5087013;28;19930;-62
2023/12/20 10:52:49;;;;;;;;;;;5.90;88.80;;;;;;5080567;28;20322;-63
2023/12/20 10:55:23;;;;;;;;;;;5.90;88.80;;;;;;5077588;28;20398;-62
2023/12/20 10:57:51;;;;;;;;;;;5.90;88.70;;;;;;5087646;28;19993;-62
2023/12/20 11:00:24;;;;;;;;;;;5.90;88.60;;;;;;5079747;28;20751;-62
2023/12/20 11:03:00;;;;;;;;;;;5.90;88.70;;;;;;5083019;28;19939;-62
2023/12/20 11:05:39;;;;;;;;;;;6.00;88.70;;;;;;5082275;28;20404;-63
2023/12/20 11:08:14;;;;;;;;;;;6.00;88.60;;;;;;5087663;28;19928;-61
2023/12/20 11:10:51;;;;;;;;;;;6.10;88.50;;;;;;5087217;28;20017;-63
2023/12/20 11:13:27;;;;;;;;;;;6.10;88.60;;;;;;5084868;28;19932;-62
2023/12/20 11:16:00;;;;;;;;;;;6.10;88.50;;;;;;5084795;28;19990;-63
2023/12/20 11:18:33;;;;;;;;;;;6.10;88.40;;;;;;5085214;28;19928;-62
2023/12/20 11:21:07;;;;;;;;;;;6.10;88.50;;;;;;5081995;28;19928;-62
2023/12/20 11:23:43;;;;;;;;;;;6.10;88.40;;;;;;5082275;28;20632;-63
2023/12/20 11:26:31;;;;;;;;;;;6.10;88.30;;;;;;5080606;28;20202;-62
2023/12/20 11:29:34;;;;;;;;;;;6.10;88.40;;;;;;5084282;28;19939;-61
2023/12/20 11:32:23;;;;;;;;;;;6.10;88.40;;;;;;5080709;28;19924;-64
2023/12/20 11:34:56;;;;;;;;;;;6.10;88.30;;;;;;5080019;28;19928;-61
2023/12/20 11:37:29;;;;;;;;;;;6.20;88.30;;;;;;5082295;28;20566;-64
2023/12/20 11:40:03;;;;;;;;;;;6.20;88.10;;;;;;5084020;28;19977;-63
2023/12/20 11:42:38;;;;;;;;;;;6.30;88.00;;;;;;5085892;28;19928;-60
2023/12/20 11:45:15;;;;;;;;;;;6.20;87.90;;;;;;5084714;28;19924;-61
2023/12/20 11:47:49;;;;;;;;;;;6.30;87.80;;;;;;5086860;28;20351;-60
2023/12/20 11:50:23;;;;;;;;;;;6.30;87.70;;;;;;5085450;28;19931;-59
2023/12/20 11:52:57;;;;;;;;;;;6.20;87.80;;;;;;5081265;28;19931;-60
2023/12/20 11:55:31;;;;;;;;;;;6.20;87.60;;;;;;5082022;28;19932;-56
2023/12/20 11:58:04;;;;;;;;;;;6.20;87.80;;;;;;5085707;28;19925;-59
2023/12/20 12:00:37;;;;;;;;;;;6.20;87.70;;;;;;5083540;28;19932;-60
2023/12/20 12:03:10;;;;;;;;;;;6.20;87.70;;;;;;5084447;28;19928;-61
2023/12/20 12:05:43;;;;;;;;;;;6.20;87.70;;;;;;5085461;28;20451;-62
2023/12/20 12:08:17;;;;;;;;;;;6.30;87.80;;;;;;5082687;28;19927;-60
2023/12/20 12:10:51;;;;;;;;;;;6.30;87.70;;;;;;5085875;28;19940;-59
2023/12/20 12:13:27;;;;;;;;;;;6.30;87.70;;;;;;5086405;28;19928;-60
2023/12/20 12:16:00;;;;;;;;;;;6.30;87.70;;;;;;5085904;28;19963;-60
2023/12/20 12:18:33;;;;;;;;;;;6.30;87.80;;;;;;5086876;28;19940;-60
2023/12/20 12:21:06;;;;;;;;;;;6.30;87.80;;;;;;5082550;28;19934;-59
2023/12/20 12:23:40;;;;;;;;;;;6.30;88.00;;;;;;5092593;28;19935;-59
2023/12/20 12:26:14;;;;;;;;;;;6.30;87.90;;;;;;5092649;27;19924;-60
2023/12/20 12:28:41;;;;;;;;;;;6.30;88.00;;;;;;5086289;28;19978;-59
2023/12/20 12:31:15;;;;;;;;;;;6.30;88.10;;;;;;5083220;28;20378;-60
2023/12/20 12:33:48;;;;;;;;;;;6.30;88.00;;;;;;5085725;28;20496;-58
2023/12/20 12:36:21;;;;;;;;;;;6.40;88.00;;;;;;5082864;28;19932;-59
2023/12/20 12:38:57;;;;;;;;;;;6.40;87.90;;;;;;5081026;28;20578;-60
2023/12/20 12:41:30;;;;;;;;;;;6.40;88.00;;;;;;5082278;28;20051;-61
2023/12/20 12:44:03;;;;;;;;;;;6.40;87.90;;;;;;5083520;28;19936;-60
2023/12/20 12:46:36;;;;;;;;;;;6.40;88.10;;;;;;5082113;28;20540;-60
2023/12/20 12:49:09;;;;;;;;;;;6.40;88.00;;;;;;5081406;28;19932;-59
2023/12/20 12:51:42;;;;;;;;;;;6.40;88.00;;;;;;5084674;28;19924;-73
2023/12/20 12:54:17;;;;;;;;;;;6.40;87.90;;;;;;5085406;28;20005;-72
2023/12/20 12:56:52;;;;;;;;;;;6.40;87.90;;;;;;5087959;28;19970;-72
2023/12/20 12:59:26;;;;;;;;;;;6.40;87.90;;;;;;5090360;28;19981;-73
2023/12/20 13:01:59;;;;;;;;;;;6.40;87.90;;;;;;5085729;28;20027;-72
2023/12/20 13:04:32;;;;;;;;;;;6.40;87.80;;;;;;5087093;28;19928;-71
2023/12/20 13:07:05;;;;;;;;;;;6.40;87.80;;;;;;5085861;28;19951;-72
2023/12/20 13:09:40;;;;;;;;;;;6.40;87.60;;;;;;5085190;28;20371;-73
2023/12/20 13:12:07;;;;;;;;;;;6.60;87.60;;;;;;5087651;28;20013;-72
2023/12/20 13:14:40;;;;;;;;;;;6.60;87.50;;;;;;5089480;28;19928;-72
2023/12/20 13:17:13;;;;;;;;;;;6.60;87.40;;;;;;5083646;27;19932;-72
2023/12/20 13:19:46;;;;;;;;;;;6.60;87.30;;;;;;5089205;28;19934;-73
2023/12/20 13:22:19;;;;;;;;;;;6.60;87.20;;;;;;5083581;28;19935;-72
2023/12/20 13:24:53;;;;;;;;;;;6.70;87.20;;;;;;5090218;28;19985;-71
2023/12/20 13:27:27;;;;;;;;;;;6.60;87.00;;;;;;5090749;28;19928;-71
2023/12/20 13:30:02;;;;;;;;;;;6.70;87.00;;;;;;5092573;28;19928;-72
2023/12/20 13:32:35;;;;;;;;;;;6.70;86.80;;;;;;5090735;28;19928;-72
2023/12/20 13:35:08;;;;;;;;;;;6.70;86.70;;;;;;5090493;28;19928;-72
2023/12/20 13:37:42;;;;;;;;;;;6.60;86.50;;;;;;5086038;28;20342;-72
2023/12/20 13:40:19;;;;;;;;;;;6.60;86.30;;;;;;5087690;28;19924;-72
2023/12/20 13:42:52;;;;;;;;;;;6.60;86.20;;;;;;5088501;28;19967;-72
2023/12/20 13:45:25;;;;;;;;;;;6.60;86.10;;;;;;5089210;28;19928;-71
2023/12/20 13:47:59;;;;;;;;;;;6.60;85.80;;;;;;5089739;28;19928;-72
2023/12/20 13:50:32;;;;;;;;;;;6.60;85.90;;;;;;5088737;28;19935;-72
2023/12/20 13:53:05;;;;;;;;;;;6.60;85.70;;;;;;5080289;28;20295;-73
2023/12/20 13:55:40;;;;;;;;;;;6.50;85.90;;;;;;5084028;28;19924;-71
2023/12/20 13:58:13;;;;;;;;;;;6.60;85.90;;;;;;5087222;28;20006;-71
2023/12/20 14:00:46;;;;;;;;;;;6.50;85.60;;;;;;5084214;28;19928;-59
2023/12/20 14:03:19;;;;;;;;;;;6.50;85.50;;;;;;5086985;28;20018;-60
2023/12/20 14:05:52;;;;;;;;;;;6.50;85.60;;;;;;5086409;28;19928;-60
2023/12/20 14:08:26;;;;;;;;;;;6.50;85.30;;;;;;5086932;28;20282;-60
2023/12/20 14:11:02;;;;;;;;;;;6.50;85.40;;;;;;5087556;28;19955;-58
2023/12/20 14:13:35;;;;;;;;;;;6.50;85.60;;;;;;5089513;28;19977;-59
2023/12/20 14:16:03;;;;;;;;;;;6.50;85.40;;;;;;5089582;28;19932;-60
2023/12/20 14:18:36;;;;;;;;;;;6.50;85.50;;;;;;5084659;28;20803;-61
2023/12/20 14:21:10;;;;;;;;;;;6.50;85.20;;;;;;5078655;28;20283;-60
2023/12/20 14:23:43;;;;;;;;;;;6.50;85.50;;;;;;5084914;28;20435;-60
2023/12/20 14:26:17;;;;;;;;;;;6.50;85.40;;;;;;5084862;28;19928;-60
2023/12/20 14:28:51;;;;;;;;;;;6.50;85.30;;;;;;5086397;28;19928;-60
2023/12/20 14:31:26;;;;;;;;;;;6.50;85.30;;;;;;5086229;28;19956;-59
2023/12/20 14:34:00;;;;;;;;;;;6.40;85.30;;;;;;5085855;28;19931;-61
2023/12/20 14:36:32;;;;;;;;;;;6.40;85.10;;;;;;5086372;28;19932;-60
2023/12/20 14:39:05;;;;;;;;;;;6.40;85.30;;;;;;5086392;28;19931;-60
2023/12/20 14:41:40;;;;;;;;;;;6.40;85.30;;;;;;5083925;28;19931;-60
2023/12/20 14:44:14;;;;;;;;;;;6.40;85.20;;;;;;5086253;28;19928;-61
2023/12/20 14:46:47;;;;;;;;;;;6.40;85.10;;;;;;5084178;28;19924;-60
2023/12/20 14:49:20;;;;;;;;;;;6.40;85.20;;;;;;5084095;28;19931;-59
2023/12/20 14:51:53;;;;;;;;;;;6.40;85.20;;;;;;5084324;28;20492;-60
2023/12/20 14:54:20;;;;;;;;;;;6.40;85.20;;;;;;5084450;28;19928;-59
2023/12/20 14:56:55;;;;;;;;;;;6.40;85.40;;;;;;5086915;27;19928;-61
2023/12/20 14:59:28;;;;;;;;;;;6.40;85.40;;;;;;5086602;28;19936;-61
2023/12/20 15:02:04;;;;;;;;;;;6.40;85.40;;;;;;5087227;28;19928;-61
2023/12/20 15:04:37;;;;;;;;;;;6.40;85.50;;;;;;5081448;28;20474;-60
2023/12/20 15:07:10;;;;;;;;;;;6.40;85.60;;;;;;5083975;28;19924;-62
2023/12/20 15:09:46;;;;;;;;;;;6.40;85.50;;;;;;5087072;28;19928;-59